Time;durP1;ratioP1;P1;durP2;ratioP2;P2;SDS_P1;SDS_P2;PMS_P1;PMS_P2;Temp;Humidity;BMP_temperature;BMP_pressure;BME280_temperature;BME280_humidity;BME280_pressure;Samples;Min_cycle;Max_cycle;Signal;HPM_P1;HPM_P2
2021/09/24 00:00:07;;;;;;;;;;;;;;;;;;4980271;28;19932;-70
2021/09/24 00:02:37;;;;;;;;;;;;;;;;;;4981891;28;19921;-70
2021/09/24 00:05:02;;;;;;;;;;;;;;;;;;4979479;28;19936;-70
2021/09/24 00:07:28;;;;;;;;;;;;;;;;;;4978670;28;19918;-69
2021/09/24 00:09:53;;;;;;;;;;;;;;;;;;4985002;28;19918;-70
2021/09/24 00:12:18;;;;;;;;;;;;;;;;;;5000157;28;20017;-69
2021/09/24 00:14:43;;;;;;;;;;;;;;;;;;4986421;28;19976;-70
2021/09/24 00:17:12;;;;;;;;;;;;;;;;;;4979048;28;20296;-71
2021/09/24 00:19:37;;;;;;;;;;;;;;;;;;4991898;28;19918;-69
2021/09/24 00:22:02;;;;;;;;;;;;;;;;;;5001886;28;20294;-70
2021/09/24 00:24:28;;;;;;;;;;;;;;;;;;4980204;28;20284;-70
2021/09/24 00:26:53;;;;;;;;;;;;;;;;;;4983398;28;20279;-69
2021/09/24 00:29:18;;;;;;;;;;;;;;;;;;4980432;28;20352;-70
2021/09/24 00:31:43;;;;;;;;;;;;;;;;;;5001114;28;20052;-70
2021/09/24 00:34:09;;;;;;;;;;;;;;;;;;4980206;28;20020;-69
2021/09/24 00:36:34;;;;;;;;;;;;;;;;;;4979166;28;19945;-69
2021/09/24 00:38:59;;;;;;;;;;;;;;;;;;4984647;28;19918;-71
2021/09/24 00:41:24;;;;;;;;;;;;;;;;;;4984964;28;19924;-69
2021/09/24 00:43:49;;;;;;;;;;;;;;;;;;4979243;28;19918;-69
2021/09/24 00:46:15;;;;;;;;;;;;;;;;;;5000429;28;19926;-71
2021/09/24 00:48:40;;;;;;;;;;;;;;;;;;4979082;28;19964;-69
2021/09/24 00:51:05;;;;;;;;;;;;;;;;;;4980571;28;20319;-70
2021/09/24 00:53:31;;;;;;;;;;;;;;;;;;4977506;28;19957;-69
2021/09/24 00:55:56;;;;;;;;;;;;;;;;;;4983559;28;20022;-69
2021/09/24 00:58:22;;;;;;;;;;;;;;;;;;4978869;28;19925;-70
2021/09/24 01:00:47;;;;;;;;;;;;;;;;;;5001391;28;19910;-69
2021/09/24 01:03:12;;;;;;;;;;;;;;;;;;4976378;28;19922;-70
2021/09/24 01:05:37;;;;;;;;;;;;;;;;;;4980590;28;19926;-69
2021/09/24 01:08:02;;;;;;;;;;;;;;;;;;4981307;28;19928;-71
2021/09/24 01:10:28;;;;;;;;;;;;;;;;;;4979644;28;19917;-70
2021/09/24 01:12:53;;;;;;;;;;;;;;;;;;4979926;28;19973;-69
2021/09/24 01:15:18;;;;;;;;;;;;;;;;;;4978694;28;19959;-69
2021/09/24 01:17:43;;;;;;;;;;;;;;;;;;4978239;28;19964;-69
2021/09/24 01:20:09;;;;;;;;;;;;;;;;;;4977478;28;20012;-69
2021/09/24 01:22:34;;;;;;;;;;;;;;;;;;4981128;28;19918;-70
2021/09/24 01:24:59;;;;;;;;;;;;;;;;;;4986130;28;19924;-69
2021/09/24 01:27:24;;;;;;;;;;;;;;;;;;4978718;28;19926;-70
2021/09/24 01:29:52;;;;;;;;;;;;;;;;;;4978144;28;19945;-69
2021/09/24 01:32:17;;;;;;;;;;;;;;;;;;4978602;28;19937;-70
2021/09/24 01:34:42;;;;;;;;;;;;;;;;;;5001567;28;20616;-69
2021/09/24 01:37:08;;;;;;;;;;;;;;;;;;4979342;28;19914;-69
2021/09/24 01:39:33;;;;;;;;;;;;;;;;;;4969930;28;19961;-69
2021/09/24 01:41:58;;;;;;;;;;;;;;;;;;4977008;28;19992;-70
2021/09/24 01:44:23;;;;;;;;;;;;;;;;;;4978649;28;20209;-69
2021/09/24 01:46:48;;;;;;;;;;;;;;;;;;5000931;28;19926;-70
2021/09/24 01:49:14;;;;;;;;;;;;;;;;;;4978048;28;19944;-70
2021/09/24 01:51:39;;;;;;;;;;;;;;;;;;4969416;28;20001;-70
2021/09/24 01:54:04;;;;;;;;;;;;;;;;;;4978217;28;19960;-71
2021/09/24 01:56:30;;;;;;;;;;;;;;;;;;4978943;28;19913;-70
2021/09/24 01:58:55;;;;;;;;;;;;;;;;;;4978077;28;19918;-71
2021/09/24 02:01:20;;;;;;;;;;;;;;;;;;4978099;28;19917;-69
2021/09/24 02:03:45;;;;;;;;;;;;;;;;;;4977434;28;19918;-69
2021/09/24 02:06:10;;;;;;;;;;;;;;;;;;4978430;28;19941;-69
2021/09/24 02:08:36;;;;;;;;;;;;;;;;;;4977517;28;20257;-69
2021/09/24 02:11:01;;;;;;;;;;;;;;;;;;4977724;28;19918;-71
2021/09/24 02:13:26;;;;;;;;;;;;;;;;;;4977977;28;19960;-70
2021/09/24 02:15:51;;;;;;;;;;;;;;;;;;4977073;28;19925;-70
2021/09/24 02:18:17;;;;;;;;;;;;;;;;;;4978556;28;19914;-69
2021/09/24 02:20:44;;;;;;;;;;;;;;;;;;4979140;28;20004;-69
2021/09/24 02:23:09;;;;;;;;;;;;;;;;;;4982406;28;20017;-71
2021/09/24 02:25:35;;;;;;;;;;;;;;;;;;4984322;28;19926;-71
2021/09/24 02:28:00;;;;;;;;;;;;;;;;;;5005446;28;19949;-70
2021/09/24 02:30:25;;;;;;;;;;;;;;;;;;4979808;28;20268;-71
2021/09/24 02:32:50;;;;;;;;;;;;;;;;;;4980328;28;19920;-71
2021/09/24 02:35:15;;;;;;;;;;;;;;;;;;4983118;28;19918;-71
2021/09/24 02:37:41;;;;;;;;;;;;;;;;;;4983068;28;19940;-69
2021/09/24 02:40:06;;;;;;;;;;;;;;;;;;4978275;28;19940;-71
2021/09/24 02:42:31;;;;;;;;;;;;;;;;;;4980153;28;20459;-71
2021/09/24 02:44:56;;;;;;;;;;;;;;;;;;4981011;28;20311;-71
2021/09/24 02:47:21;;;;;;;;;;;;;;;;;;4982913;28;20351;-71
2021/09/24 02:49:48;;;;;;;;;;;;;;;;;;4981041;28;19971;-70
2021/09/24 02:52:13;;;;;;;;;;;;;;;;;;4983084;28;19965;-70
2021/09/24 02:54:38;;;;;;;;;;;;;;;;;;4980867;28;19996;-70
2021/09/24 02:57:03;;;;;;;;;;;;;;;;;;4985962;28;19964;-71
2021/09/24 02:59:28;;;;;;;;;;;;;;;;;;4981986;28;20297;-72
2021/09/24 03:01:55;;;;;;;;;;;;;;;;;;4980906;28;20001;-70
2021/09/24 03:04:20;;;;;;;;;;;;;;;;;;4988433;28;19921;-70
2021/09/24 03:06:46;;;;;;;;;;;;;;;;;;4979832;28;19926;-70
2021/09/24 03:09:11;;;;;;;;;;;;;;;;;;4980856;28;20351;-70
2021/09/24 03:11:36;;;;;;;;;;;;;;;;;;4987212;28;20380;-72
2021/09/24 03:14:01;;;;;;;;;;;;;;;;;;4981002;28;19918;-70
2021/09/24 03:16:27;;;;;;;;;;;;;;;;;;5002032;28;19925;-72
2021/09/24 03:18:52;;;;;;;;;;;;;;;;;;5003964;28;19928;-69
2021/09/24 03:21:17;;;;;;;;;;;;;;;;;;4979799;28;19918;-69
2021/09/24 03:23:42;;;;;;;;;;;;;;;;;;4981074;28;19917;-71
2021/09/24 03:26:08;;;;;;;;;;;;;;;;;;4979327;28;19996;-69
2021/09/24 03:28:33;;;;;;;;;;;;;;;;;;4981160;28;19918;-70
2021/09/24 03:30:58;;;;;;;;;;;;;;;;;;4988098;28;19921;-70
2021/09/24 03:33:23;;;;;;;;;;;;;;;;;;5010510;28;19925;-72
2021/09/24 03:35:48;;;;;;;;;;;;;;;;;;4982141;28;19921;-70
2021/09/24 03:38:14;;;;;;;;;;;;;;;;;;5005137;28;19914;-70
2021/09/24 03:40:39;;;;;;;;;;;;;;;;;;4980570;28;19969;-71
2021/09/24 03:43:04;;;;;;;;;;;;;;;;;;5001779;28;20405;-71
2021/09/24 03:45:31;;;;;;;;;;;;;;;;;;4980604;28;19929;-71
2021/09/24 03:47:57;;;;;;;;;;;;;;;;;;5003556;28;20017;-69
2021/09/24 03:50:24;;;;;;;;;;;;;;;;;;5002076;28;19924;-71
2021/09/24 03:52:49;;;;;;;;;;;;;;;;;;4970778;28;19979;-69
2021/09/24 03:55:14;;;;;;;;;;;;;;;;;;4968949;28;19918;-69
2021/09/24 03:57:39;;;;;;;;;;;;;;;;;;4980973;28;19964;-72
2021/09/24 04:00:04;;;;;;;;;;;;;;;;;;4979157;28;20351;-71
2021/09/24 04:02:37;;;;;;;;;;;;;;;;;;5001772;28;19922;-71
2021/09/24 04:05:02;;;;;;;;;;;;;;;;;;4985916;28;20008;-71
2021/09/24 04:07:27;;;;;;;;;;;;;;;;;;4978788;28;19926;-71
2021/09/24 04:09:52;;;;;;;;;;;;;;;;;;4968914;28;19965;-71
2021/09/24 04:12:18;;;;;;;;;;;;;;;;;;4980024;28;19973;-71
2021/09/24 04:14:43;;;;;;;;;;;;;;;;;;4979389;28;19937;-72
2021/09/24 04:17:08;;;;;;;;;;;;;;;;;;4979312;28;19964;-70
2021/09/24 04:19:33;;;;;;;;;;;;;;;;;;4978956;28;20456;-72
2021/09/24 04:21:59;;;;;;;;;;;;;;;;;;4979099;28;20050;-71
2021/09/24 04:24:24;;;;;;;;;;;;;;;;;;4985952;28;19922;-70
2021/09/24 04:26:49;;;;;;;;;;;;;;;;;;4980057;28;19929;-70
2021/09/24 04:29:14;;;;;;;;;;;;;;;;;;4978697;28;20402;-70
2021/09/24 04:31:40;;;;;;;;;;;;;;;;;;4981270;28;19936;-70
2021/09/24 04:34:05;;;;;;;;;;;;;;;;;;4980033;28;19921;-70
2021/09/24 04:36:30;;;;;;;;;;;;;;;;;;5001104;28;19918;-71
2021/09/24 04:38:57;;;;;;;;;;;;;;;;;;4978770;28;19914;-70
2021/09/24 04:41:22;;;;;;;;;;;;;;;;;;4980290;28;19910;-71
2021/09/24 04:43:47;;;;;;;;;;;;;;;;;;4979197;28;19925;-70
2021/09/24 04:46:14;;;;;;;;;;;;;;;;;;4978477;28;19925;-69
2021/09/24 04:48:40;;;;;;;;;;;;;;;;;;4978113;28;19922;-69
2021/09/24 04:51:05;;;;;;;;;;;;;;;;;;5002280;28;19917;-70
2021/09/24 04:53:30;;;;;;;;;;;;;;;;;;4979231;28;19924;-71
2021/09/24 04:55:55;;;;;;;;;;;;;;;;;;4979833;28;19921;-70
2021/09/24 04:58:21;;;;;;;;;;;;;;;;;;4979036;28;19921;-71
2021/09/24 05:00:48;;;;;;;;;;;;;;;;;;4978780;28;19914;-70
2021/09/24 05:03:13;;;;;;;;;;;;;;;;;;4984873;28;20164;-70
2021/09/24 05:05:38;;;;;;;;;;;;;;;;;;4978284;28;20347;-70
2021/09/24 05:08:03;;;;;;;;;;;;;;;;;;4979301;28;20008;-70
2021/09/24 05:10:28;;;;;;;;;;;;;;;;;;4979923;28;20302;-70
2021/09/24 05:12:54;;;;;;;;;;;;;;;;;;4977167;28;19977;-70
2021/09/24 05:15:19;;;;;;;;;;;;;;;;;;4977720;28;19918;-70
2021/09/24 05:17:44;;;;;;;;;;;;;;;;;;4978126;28;19918;-70
2021/09/24 05:20:09;;;;;;;;;;;;;;;;;;5002729;28;19913;-70
2021/09/24 05:22:35;;;;;;;;;;;;;;;;;;4981117;28;19961;-69
2021/09/24 05:25:00;;;;;;;;;;;;;;;;;;4979238;28;20342;-70
2021/09/24 05:27:25;;;;;;;;;;;;;;;;;;4985554;28;20255;-70
2021/09/24 05:29:50;;;;;;;;;;;;;;;;;;4978607;28;19910;-71
2021/09/24 05:32:17;;;;;;;;;;;;;;;;;;4985852;28;19918;-70
2021/09/24 05:34:42;;;;;;;;;;;;;;;;;;4978671;28;20323;-70
2021/09/24 05:37:07;;;;;;;;;;;;;;;;;;4979109;28;19924;-70
2021/09/24 05:39:32;;;;;;;;;;;;;;;;;;4977224;28;20416;-68
2021/09/24 05:41:58;;;;;;;;;;;;;;;;;;4979394;28;20314;-69
2021/09/24 05:44:23;;;;;;;;;;;;;;;;;;5000580;28;20310;-70
2021/09/24 05:46:49;;;;;;;;;;;;;;;;;;4978055;28;19933;-69
2021/09/24 05:49:14;;;;;;;;;;;;;;;;;;4978444;28;19951;-69
2021/09/24 05:51:39;;;;;;;;;;;;;;;;;;5001105;28;19922;-68
2021/09/24 05:54:04;;;;;;;;;;;;;;;;;;4978265;28;19961;-68
2021/09/24 05:56:29;;;;;;;;;;;;;;;;;;4981010;28;19921;-68
2021/09/24 05:58:55;;;;;;;;;;;;;;;;;;5004786;28;20355;-69
2021/09/24 06:01:20;;;;;;;;;;;;;;;;;;4976702;28;19926;-73
2021/09/24 06:03:45;;;;;;;;;;;;;;;;;;4980895;28;20310;-70
2021/09/24 06:06:10;;;;;;;;;;;;;;;;;;5002258;28;20252;-69
2021/09/24 06:08:36;;;;;;;;;;;;;;;;;;5005147;28;19933;-70
2021/09/24 06:11:01;;;;;;;;;;;;;;;;;;4981599;28;20426;-70
2021/09/24 06:13:26;;;;;;;;;;;;;;;;;;5003990;28;19940;-71
2021/09/24 06:15:51;;;;;;;;;;;;;;;;;;4981777;28;20422;-71
2021/09/24 06:18:17;;;;;;;;;;;;;;;;;;4983366;28;19918;-71
2021/09/24 06:20:44;;;;;;;;;;;;;;;;;;4978881;28;19968;-69
2021/09/24 06:23:09;;;;;;;;;;;;;;;;;;4987275;28;19918;-69
2021/09/24 06:25:34;;;;;;;;;;;;;;;;;;4995179;28;19992;-69
2021/09/24 06:28:02;;;;;;;;;;;;;;;;;;4977432;28;19924;-69
2021/09/24 06:30:30;;;;;;;;;;;;;;;;;;4968843;28;20567;-69
2021/09/24 06:32:55;;;;;;;;;;;;;;;;;;4990367;28;19918;-69
2021/09/24 06:35:21;;;;;;;;;;;;;;;;;;4976740;28;20420;-68
2021/09/24 06:37:46;;;;;;;;;;;;;;;;;;4955082;28;20412;-69
2021/09/24 06:40:11;;;;;;;;;;;;;;;;;;4959298;28;20278;-70
2021/09/24 06:42:36;;;;;;;;;;;;;;;;;;4961240;28;20157;-69
2021/09/24 06:45:02;;;;;;;;;;;;;;;;;;4966465;28;20621;-69
2021/09/24 06:47:27;;;;;;;;;;;;;;;;;;4967472;28;20560;-70
2021/09/24 06:49:52;;;;;;;;;;;;;;;;;;4978095;28;20441;-69
2021/09/24 06:52:19;;;;;;;;;;;;;;;;;;4983473;28;19929;-70
2021/09/24 06:54:44;;;;;;;;;;;;;;;;;;4960792;28;19928;-69
2021/09/24 06:57:09;;;;;;;;;;;;;;;;;;4968731;28;20286;-70
2021/09/24 06:59:35;;;;;;;;;;;;;;;;;;4977095;28;19923;-69
2021/09/24 07:02:00;;;;;;;;;;;;;;;;;;4981892;28;20435;-69
2021/09/24 07:04:25;;;;;;;;;;;;;;;;;;4965530;28;19979;-69
2021/09/24 07:06:50;;;;;;;;;;;;;;;;;;4962082;28;20777;-70
2021/09/24 07:09:15;;;;;;;;;;;;;;;;;;4961798;28;19922;-70
2021/09/24 07:11:42;;;;;;;;;;;;;;;;;;4984384;28;19929;-70
2021/09/24 07:14:10;;;;;;;;;;;;;;;;;;4962208;28;21298;-70
2021/09/24 07:16:35;;;;;;;;;;;;;;;;;;4967269;28;19918;-69
2021/09/24 07:19:01;;;;;;;;;;;;;;;;;;4961572;28;19922;-70
2021/09/24 07:21:26;;;;;;;;;;;;;;;;;;4981469;28;20409;-69
2021/09/24 07:23:51;;;;;;;;;;;;;;;;;;4958395;28;19917;-69
2021/09/24 07:26:16;;;;;;;;;;;;;;;;;;4986479;28;19930;-70
2021/09/24 07:28:42;;;;;;;;;;;;;;;;;;4957457;28;19917;-70
2021/09/24 07:31:07;;;;;;;;;;;;;;;;;;4985731;28;19918;-68
2021/09/24 07:33:32;;;;;;;;;;;;;;;;;;4960426;28;20902;-69
2021/09/24 07:35:57;;;;;;;;;;;;;;;;;;4975316;28;19918;-69
2021/09/24 07:38:22;;;;;;;;;;;;;;;;;;4960436;28;19921;-69
2021/09/24 07:40:48;;;;;;;;;;;;;;;;;;4960989;28;20585;-72
2021/09/24 07:43:14;;;;;;;;;;;;;;;;;;4963440;28;20409;-70
2021/09/24 07:45:41;;;;;;;;;;;;;;;;;;4967587;28;20221;-71
2021/09/24 07:48:07;;;;;;;;;;;;;;;;;;4957847;28;19937;-71
2021/09/24 07:50:32;;;;;;;;;;;;;;;;;;4961409;28;19917;-70
2021/09/24 07:52:57;;;;;;;;;;;;;;;;;;4975082;28;20515;-70
2021/09/24 07:55:22;;;;;;;;;;;;;;;;;;4963432;28;19921;-70
2021/09/24 07:57:51;;;;;;;;;;;;;;;;;;4961031;28;19922;-69
2021/09/24 08:00:16;;;;;;;;;;;;;;;;;;4982638;28;19956;-69
2021/09/24 08:02:42;;;;;;;;;;;;;;;;;;4962152;28;19922;-68
2021/09/24 08:05:07;;;;;;;;;;;;;;;;;;4984488;28;20791;-70
2021/09/24 08:07:32;;;;;;;;;;;;;;;;;;4956868;28;20477;-67
2021/09/24 08:09:58;;;;;;;;;;;;;;;;;;4962791;28;19921;-68
2021/09/24 08:12:25;;;;;;;;;;;;;;;;;;4954865;28;19921;-69
2021/09/24 08:14:50;;;;;;;;;;;;;;;;;;4955980;28;20321;-69
2021/09/24 08:17:15;;;;;;;;;;;;;;;;;;4960543;28;20182;-72
2021/09/24 08:19:41;;;;;;;;;;;;;;;;;;4963086;28;19918;-69
2021/09/24 08:22:06;;;;;;;;;;;;;;;;;;4976692;28;19933;-70
2021/09/24 08:24:31;;;;;;;;;;;;;;;;;;4959691;28;20081;-70
2021/09/24 08:26:56;;;;;;;;;;;;;;;;;;4956433;28;19964;-69
2021/09/24 08:29:22;;;;;;;;;;;;;;;;;;4975711;28;19924;-69
2021/09/24 08:31:47;;;;;;;;;;;;;;;;;;4960927;28;20595;-67
2021/09/24 08:34:12;;;;;;;;;;;;;;;;;;4972542;28;19918;-69
2021/09/24 08:36:37;;;;;;;;;;;;;;;;;;4961270;28;19926;-70
2021/09/24 08:39:03;;;;;;;;;;;;;;;;;;4968954;28;19944;-69
2021/09/24 08:41:29;;;;;;;;;;;;;;;;;;4963035;28;19928;-69
2021/09/24 08:43:54;;;;;;;;;;;;;;;;;;4960601;28;19975;-69
2021/09/24 08:46:20;;;;;;;;;;;;;;;;;;4957075;28;20317;-69
2021/09/24 08:48:45;;;;;;;;;;;;;;;;;;4965053;28;19918;-70
2021/09/24 08:51:10;;;;;;;;;;;;;;;;;;4959082;28;20787;-69
2021/09/24 08:53:36;;;;;;;;;;;;;;;;;;4956678;28;19928;-67
2021/09/24 08:56:04;;;;;;;;;;;;;;;;;;4956901;28;20554;-68
2021/09/24 08:58:29;;;;;;;;;;;;;;;;;;4952392;28;19929;-70
2021/09/24 09:00:54;;;;;;;;;;;;;;;;;;4957279;28;19959;-69
2021/09/24 09:03:19;;;;;;;;;;;;;;;;;;4958710;28;19978;-70
2021/09/24 09:05:45;;;;;;;;;;;;;;;;;;4971517;28;19949;-68
2021/09/24 09:08:10;;;;;;;;;;;;;;;;;;4961700;28;20219;-68
2021/09/24 09:10:35;;;;;;;;;;;;;;;;;;4959880;28;20648;-69
2021/09/24 09:13:01;;;;;;;;;;;;;;;;;;4956793;28;19924;-70
2021/09/24 09:15:26;;;;;;;;;;;;;;;;;;4960912;28;19956;-68
2021/09/24 09:17:52;;;;;;;;;;;;;;;;;;4959160;28;20421;-69
2021/09/24 09:20:17;;;;;;;;;;;;;;;;;;4963158;28;20293;-68
2021/09/24 09:22:42;;;;;;;;;;;;;;;;;;4987705;28;20575;-68
2021/09/24 09:25:07;;;;;;;;;;;;;;;;;;4975704;28;19953;-71
2021/09/24 09:27:33;;;;;;;;;;;;;;;;;;4957927;28;20406;-69
2021/09/24 09:29:58;;;;;;;;;;;;;;;;;;4960385;28;20016;-70
2021/09/24 09:32:23;;;;;;;;;;;;;;;;;;4961222;28;19922;-71
2021/09/24 09:34:49;;;;;;;;;;;;;;;;;;4961280;28;20206;-71
2021/09/24 09:37:14;;;;;;;;;;;;;;;;;;4965735;28;20061;-72
2021/09/24 09:39:39;;;;;;;;;;;;;;;;;;4959224;28;20035;-72
2021/09/24 09:42:05;;;;;;;;;;;;;;;;;;4962673;28;19921;-71
2021/09/24 09:44:30;;;;;;;;;;;;;;;;;;4964600;28;19918;-70
2021/09/24 09:46:55;;;;;;;;;;;;;;;;;;4961683;28;20039;-72
2021/09/24 09:49:21;;;;;;;;;;;;;;;;;;4966096;28;19927;-70
2021/09/24 09:51:46;;;;;;;;;;;;;;;;;;4959810;28;20167;-71
2021/09/24 09:54:11;;;;;;;;;;;;;;;;;;4944716;28;20033;-69
2021/09/24 09:56:37;;;;;;;;;;;;;;;;;;4961294;28;19922;-70
2021/09/24 09:59:02;;;;;;;;;;;;;;;;;;4959190;28;20344;-72
2021/09/24 10:01:27;;;;;;;;;;;;;;;;;;4962290;28;19921;-70
2021/09/24 10:03:52;;;;;;;;;;;;;;;;;;4966496;28;20176;-69
2021/09/24 10:06:20;;;;;;;;;;;;;;;;;;4975944;28;21935;-70
2021/09/24 10:08:45;;;;;;;;;;;;;;;;;;4962998;28;20381;-69
2021/09/24 10:11:14;;;;;;;;;;;;;;;;;;4958383;28;20465;-68
2021/09/24 10:13:39;;;;;;;;;;;;;;;;;;4978083;28;20471;-69
2021/09/24 10:16:04;;;;;;;;;;;;;;;;;;4967985;28;20531;-69
2021/09/24 10:18:29;;;;;;;;;;;;;;;;;;4958307;28;20409;-69
2021/09/24 10:20:55;;;;;;;;;;;;;;;;;;4966978;28;19917;-68
2021/09/24 10:23:20;;;;;;;;;;;;;;;;;;4956613;28;19941;-69
2021/09/24 10:25:45;;;;;;;;;;;;;;;;;;4960045;28;19928;-70
2021/09/24 10:28:10;;;;;;;;;;;;;;;;;;4962268;28;20469;-69
2021/09/24 10:30:36;;;;;;;;;;;;;;;;;;4957426;28;19917;-70
2021/09/24 10:33:01;;;;;;;;;;;;;;;;;;4976920;28;20690;-68
2021/09/24 10:35:26;;;;;;;;;;;;;;;;;;4958267;28;20480;-69
2021/09/24 10:37:51;;;;;;;;;;;;;;;;;;4973463;28;19918;-68
2021/09/24 10:40:17;;;;;;;;;;;;;;;;;;4983729;28;19929;-68
2021/09/24 10:42:43;;;;;;;;;;;;;;;;;;4979398;28;20578;-68
2021/09/24 10:45:08;;;;;;;;;;;;;;;;;;4987593;28;20362;-68
2021/09/24 10:47:33;;;;;;;;;;;;;;;;;;4973177;28;19988;-67
2021/09/24 10:49:59;;;;;;;;;;;;;;;;;;4978500;28;19923;-70
2021/09/24 10:52:24;;;;;;;;;;;;;;;;;;4963731;28;19983;-68
2021/09/24 10:54:49;;;;;;;;;;;;;;;;;;4963688;28;20879;-68
2021/09/24 10:57:14;;;;;;;;;;;;;;;;;;4966368;28;19935;-70
2021/09/24 10:59:39;;;;;;;;;;;;;;;;;;4973926;28;20003;-68
2021/09/24 11:02:05;;;;;;;;;;;;;;;;;;4991200;28;19929;-67
2021/09/24 11:04:30;;;;;;;;;;;;;;;;;;4988422;28;19925;-68
2021/09/24 11:06:59;;;;;;;;;;;;;;;;;;4975886;28;19925;-69
2021/09/24 11:09:24;;;;;;;;;;;;;;;;;;4979683;28;19948;-69
2021/09/24 11:11:49;;;;;;;;;;;;;;;;;;4978777;28;19919;-68
2021/09/24 11:14:14;;;;;;;;;;;;;;;;;;4979810;28;19921;-68
2021/09/24 11:16:44;;;;;;;;;;;;;;;;;;4984505;28;19961;-67
2021/09/24 11:19:09;;;;;;;;;;;;;;;;;;4964962;28;19918;-68
2021/09/24 11:21:34;;;;;;;;;;;;;;;;;;4995877;28;20027;-70
2021/09/24 11:24:00;;;;;;;;;;;;;;;;;;4967238;28;20363;-68
2021/09/24 11:26:25;;;;;;;;;;;;;;;;;;4971152;28;19968;-69
2021/09/24 11:28:50;;;;;;;;;;;;;;;;;;4972885;28;20012;-68
2021/09/24 11:31:16;;;;;;;;;;;;;;;;;;4964331;28;19977;-69
2021/09/24 11:33:41;;;;;;;;;;;;;;;;;;4976835;28;19922;-70
2021/09/24 11:36:06;;;;;;;;;;;;;;;;;;4973518;28;20406;-72
2021/09/24 11:38:31;;;;;;;;;;;;;;;;;;4961820;28;19965;-74
2021/09/24 11:40:57;;;;;;;;;;;;;;;;;;4962642;28;20478;-72
2021/09/24 11:43:22;;;;;;;;;;;;;;;;;;4970620;28;20390;-71
2021/09/24 11:45:49;;;;;;;;;;;;;;;;;;4960044;28;20436;-73
2021/09/24 11:48:15;;;;;;;;;;;;;;;;;;4956125;28;19928;-74
2021/09/24 11:50:40;;;;;;;;;;;;;;;;;;4963552;28;20309;-72
2021/09/24 11:53:09;;;;;;;;;;;;;;;;;;4974943;28;20468;-75
2021/09/24 11:55:34;;;;;;;;;;;;;;;;;;4963897;28;19918;-72
2021/09/24 11:57:59;;;;;;;;;;;;;;;;;;4970485;28;20611;-74
2021/09/24 12:00:24;;;;;;;;;;;;;;;;;;4957726;28;20303;-74
2021/09/24 12:02:50;;;;;;;;;;;;;;;;;;4971317;28;19921;-74
2021/09/24 12:05:15;;;;;;;;;;;;;;;;;;4982312;28;19922;-72
2021/09/24 12:07:40;;;;;;;;;;;;;;;;;;4956138;28;19929;-70
2021/09/24 12:10:05;;;;;;;;;;;;;;;;;;4957877;28;19918;-73
2021/09/24 12:12:31;;;;;;;;;;;;;;;;;;4966884;28;19928;-73
2021/09/24 12:14:56;;;;;;;;;;;;;;;;;;4965929;28;19924;-72
2021/09/24 12:17:22;;;;;;;;;;;;;;;;;;4965276;28;19918;-72
2021/09/24 12:19:47;;;;;;;;;;;;;;;;;;4969067;28;20365;-72
2021/09/24 12:22:14;;;;;;;;;;;;;;;;;;4980304;28;19940;-73
2021/09/24 12:24:45;;;;;;;;;;;;;;;;;;4973045;28;19975;-70
2021/09/24 12:27:13;;;;;;;;;;;;;;;;;;4971616;28;19925;-70
2021/09/24 12:29:42;;;;;;;;;;;;;;;;;;4958614;28;20535;-73
2021/09/24 12:32:07;;;;;;;;;;;;;;;;;;4976625;28;20559;-71
2021/09/24 12:34:33;;;;;;;;;;;;;;;;;;4960527;28;20138;-72
2021/09/24 12:36:58;;;;;;;;;;;;;;;;;;4956940;28;19996;-72
2021/09/24 12:39:23;;;;;;;;;;;;;;;;;;4959249;28;19917;-71
2021/09/24 12:41:48;;;;;;;;;;;;;;;;;;4962798;28;19921;-73
2021/09/24 12:44:14;;;;;;;;;;;;;;;;;;4957222;28;20485;-70
2021/09/24 12:46:40;;;;;;;;;;;;;;;;;;4979110;28;19921;-71
2021/09/24 12:49:05;;;;;;;;;;;;;;;;;;4972853;28;20138;-72
2021/09/24 12:51:30;;;;;;;;;;;;;;;;;;4958797;28;19919;-72
2021/09/24 12:53:55;;;;;;;;;;;;;;;;;;4972150;28;21917;-72
2021/09/24 12:56:21;;;;;;;;;;;;;;;;;;4973550;28;20046;-73
2021/09/24 12:58:46;;;;;;;;;;;;;;;;;;4966762;28;19949;-71
2021/09/24 13:01:11;;;;;;;;;;;;;;;;;;4961128;28;20043;-73
2021/09/24 13:03:43;;;;;;;;;;;;;;;;;;4955495;28;19921;-72
2021/09/24 13:06:08;;;;;;;;;;;;;;;;;;4960718;28;20773;-71
2021/09/24 13:08:33;;;;;;;;;;;;;;;;;;4969751;28;20006;-70
2021/09/24 13:10:59;;;;;;;;;;;;;;;;;;4969398;28;20025;-70
2021/09/24 13:13:26;;;;;;;;;;;;;;;;;;4957478;28;20041;-74
2021/09/24 13:15:52;;;;;;;;;;;;;;;;;;4970168;28;19914;-72
2021/09/24 13:18:17;;;;;;;;;;;;;;;;;;4967379;28;20020;-72
2021/09/24 13:20:42;;;;;;;;;;;;;;;;;;4976433;28;20011;-70
2021/09/24 13:23:07;;;;;;;;;;;;;;;;;;4953846;28;20373;-70
2021/09/24 13:25:32;;;;;;;;;;;;;;;;;;4975579;28;20442;-71
2021/09/24 13:27:58;;;;;;;;;;;;;;;;;;4965896;28;20395;-71
2021/09/24 13:30:23;;;;;;;;;;;;;;;;;;4995042;28;19917;-71
2021/09/24 13:32:48;;;;;;;;;;;;;;;;;;5002518;28;20301;-70
2021/09/24 13:35:13;;;;;;;;;;;;;;;;;;5001565;28;19952;-71
2021/09/24 13:37:41;;;;;;;;;;;;;;;;;;4996528;28;19918;-70
2021/09/24 13:40:09;;;;;;;;;;;;;;;;;;5003199;28;20008;-71
2021/09/24 13:42:37;;;;;;;;;;;;;;;;;;4996650;28;20008;-70
2021/09/24 13:45:03;;;;;;;;;;;;;;;;;;4997509;28;20478;-71
2021/09/24 13:47:28;;;;;;;;;;;;;;;;;;5002436;28;19922;-71
2021/09/24 13:49:53;;;;;;;;;;;;;;;;;;5002277;28;19917;-71
2021/09/24 13:52:18;;;;;;;;;;;;;;;;;;5001060;28;19975;-70
2021/09/24 13:54:44;;;;;;;;;;;;;;;;;;5002518;28;20055;-71
2021/09/24 13:57:09;;;;;;;;;;;;;;;;;;4996879;28;20305;-71
2021/09/24 13:59:34;;;;;;;;;;;;;;;;;;4994367;28;19989;-71
2021/09/24 14:01:59;;;;;;;;;;;;;;;;;;4997067;28;19929;-71
2021/09/24 14:04:26;;;;;;;;;;;;;;;;;;5003421;28;20142;-70
2021/09/24 14:06:53;;;;;;;;;;;;;;;;;;4996934;28;20276;-71
2021/09/24 14:09:18;;;;;;;;;;;;;;;;;;4991992;28;20012;-70
2021/09/24 14:11:44;;;;;;;;;;;;;;;;;;4994316;28;20009;-71
2021/09/24 14:14:09;;;;;;;;;;;;;;;;;;4999304;28;20381;-71
2021/09/24 14:16:34;;;;;;;;;;;;;;;;;;4978987;28;19922;-71
2021/09/24 14:19:00;;;;;;;;;;;;;;;;;;4998092;28;19929;-72
2021/09/24 14:21:25;;;;;;;;;;;;;;;;;;5000101;28;20371;-70
2021/09/24 14:23:51;;;;;;;;;;;;;;;;;;4990600;28;19981;-70
2021/09/24 14:26:16;;;;;;;;;;;;;;;;;;5002416;28;19957;-71
2021/09/24 14:28:41;;;;;;;;;;;;;;;;;;4998223;28;19928;-70
2021/09/24 14:31:06;;;;;;;;;;;;;;;;;;4991398;28;20538;-71
2021/09/24 14:33:32;;;;;;;;;;;;;;;;;;4982840;28;20366;-70
2021/09/24 14:35:57;;;;;;;;;;;;;;;;;;4993754;28;19913;-71
2021/09/24 14:38:22;;;;;;;;;;;;;;;;;;5001342;28;19924;-72
2021/09/24 14:40:47;;;;;;;;;;;;;;;;;;4996937;28;19914;-72
2021/09/24 14:43:12;;;;;;;;;;;;;;;;;;4984810;28;19987;-73
2021/09/24 14:45:38;;;;;;;;;;;;;;;;;;4997936;28;19918;-73
2021/09/24 14:48:03;;;;;;;;;;;;;;;;;;4992836;28;19933;-72
2021/09/24 14:50:28;;;;;;;;;;;;;;;;;;5002131;28;20000;-72
2021/09/24 14:52:54;;;;;;;;;;;;;;;;;;4990619;28;19917;-73
2021/09/24 14:55:20;;;;;;;;;;;;;;;;;;4992845;28;19945;-72
2021/09/24 14:57:45;;;;;;;;;;;;;;;;;;5001946;28;19967;-73
2021/09/24 15:00:10;;;;;;;;;;;;;;;;;;4992701;28;20351;-72
2021/09/24 15:02:35;;;;;;;;;;;;;;;;;;5002659;28;19925;-72
2021/09/24 15:05:00;;;;;;;;;;;;;;;;;;4993355;28;20387;-72
2021/09/24 15:07:26;;;;;;;;;;;;;;;;;;4994661;28;19979;-72
2021/09/24 15:09:51;;;;;;;;;;;;;;;;;;5001650;28;19995;-72
2021/09/24 15:12:16;;;;;;;;;;;;;;;;;;4998746;28;19987;-72
2021/09/24 15:14:41;;;;;;;;;;;;;;;;;;5000447;28;19978;-72
2021/09/24 15:17:07;;;;;;;;;;;;;;;;;;4996698;28;19964;-71
2021/09/24 15:19:32;;;;;;;;;;;;;;;;;;4993655;28;20004;-72
2021/09/24 15:21:57;;;;;;;;;;;;;;;;;;5004359;28;20012;-72
2021/09/24 15:24:22;;;;;;;;;;;;;;;;;;4994035;28;19917;-72
2021/09/24 15:26:48;;;;;;;;;;;;;;;;;;5000239;28;19927;-72
2021/09/24 15:29:13;;;;;;;;;;;;;;;;;;4977123;28;19925;-72
2021/09/24 15:31:38;;;;;;;;;;;;;;;;;;4996936;28;20355;-72
2021/09/24 15:34:03;;;;;;;;;;;;;;;;;;5003968;28;19940;-73
2021/09/24 15:36:28;;;;;;;;;;;;;;;;;;4997892;28;19968;-71
2021/09/24 15:38:54;;;;;;;;;;;;;;;;;;4998481;28;20403;-72
2021/09/24 15:41:19;;;;;;;;;;;;;;;;;;4993087;28;19918;-71
2021/09/24 15:43:44;;;;;;;;;;;;;;;;;;4989888;28;19920;-71
2021/09/24 15:46:09;;;;;;;;;;;;;;;;;;5003798;28;20019;-71
2021/09/24 15:48:35;;;;;;;;;;;;;;;;;;4995739;28;20336;-72
2021/09/24 15:51:01;;;;;;;;;;;;;;;;;;5002525;28;20397;-72
2021/09/24 15:53:26;;;;;;;;;;;;;;;;;;4995175;28;19928;-73
2021/09/24 15:55:51;;;;;;;;;;;;;;;;;;4992326;28;19917;-71
2021/09/24 15:58:17;;;;;;;;;;;;;;;;;;5003174;28;19913;-72
2021/09/24 16:00:42;;;;;;;;;;;;;;;;;;4996827;28;20012;-72
2021/09/24 16:03:07;;;;;;;;;;;;;;;;;;5001363;28;20282;-72
2021/09/24 16:05:34;;;;;;;;;;;;;;;;;;5003690;28;20012;-72
2021/09/24 16:08:00;;;;;;;;;;;;;;;;;;5000276;28;19922;-71
2021/09/24 16:10:25;;;;;;;;;;;;;;;;;;4997695;28;19917;-72
2021/09/24 16:12:53;;;;;;;;;;;;;;;;;;4996327;28;20240;-71
2021/09/24 16:15:18;;;;;;;;;;;;;;;;;;5002261;28;19917;-71
2021/09/24 16:17:43;;;;;;;;;;;;;;;;;;5000257;28;20039;-71
2021/09/24 16:20:08;;;;;;;;;;;;;;;;;;5001667;28;19921;-71
2021/09/24 16:22:34;;;;;;;;;;;;;;;;;;4992015;28;19928;-71
2021/09/24 16:24:59;;;;;;;;;;;;;;;;;;4999580;28;19979;-71
2021/09/24 16:27:24;;;;;;;;;;;;;;;;;;5003423;28;19976;-71
2021/09/24 16:29:49;;;;;;;;;;;;;;;;;;4995589;28;20318;-72
2021/09/24 16:32:15;;;;;;;;;;;;;;;;;;4995198;28;20021;-73